Time;durP1;ratioP1;P1;durP2;ratioP2;P2;SDS_P1;SDS_P2;PMS_P1;PMS_P2;Temp;Humidity;BMP_temperature;BMP_pressure;BME280_temperature;BME280_humidity;BME280_pressure;Samples;Min_cycle;Max_cycle;Signal;HPM_P1;HPM_P2
2023/10/15 00:00:17;;;;;;;10.18;4.32;;;;;;;14.55;56.73;93701.81;5103402;28;20034;-71
2023/10/15 00:02:48;;;;;;;9.68;3.83;;;;;;;14.50;56.75;93694.00;5103082;28;20094;-72
2023/10/15 00:05:17;;;;;;;14.00;4.80;;;;;;;14.49;57.19;93688.97;5103304;28;20023;-71
2023/10/15 00:07:43;;;;;;;8.70;4.18;;;;;;;14.38;57.24;93686.00;5103415;28;20092;-71
2023/10/15 00:10:15;;;;;;;7.43;3.50;;;;;;;14.39;57.07;93683.00;5103121;28;20039;-71
2023/10/15 00:12:43;;;;;;;16.40;4.33;;;;;;;14.39;57.36;93692.91;5103255;28;20050;-73
2023/10/15 00:15:19;;;;;;;11.88;3.63;;;;;;;14.33;57.83;93684.34;5103063;28;20051;-73
2023/10/15 00:17:50;;;;;;;13.68;5.05;;;;;;;14.31;58.14;93675.88;5103037;28;20028;-74
2023/10/15 00:20:17;;;;;;;8.32;3.50;;;;;;;14.27;58.34;93691.06;5103060;28;20337;-74
2023/10/15 00:22:46;;;;;;;5.97;3.70;;;;;;;14.21;58.69;93674.44;5103083;28;20267;-73
2023/10/15 00:25:14;;;;;;;7.82;4.43;;;;;;;14.16;58.76;93674.66;5103077;28;20141;-72
2023/10/15 00:27:43;;;;;;;10.57;4.10;;;;;;;14.11;59.51;93674.91;5102971;28;20227;-72
2023/10/15 00:30:12;;;;;;;13.00;4.20;;;;;;;14.05;59.18;93687.00;5102857;28;20204;-72
2023/10/15 00:32:43;;;;;;;10.82;4.32;;;;;;;14.05;59.25;93685.09;5102651;28;20046;-73
2023/10/15 00:35:09;;;;;;;9.30;4.03;;;;;;;14.02;59.40;93685.78;5102743;28;20027;-73
2023/10/15 00:37:40;;;;;;;10.27;3.88;;;;;;;13.94;60.23;93683.22;5102598;28;20321;-73
2023/10/15 00:40:06;;;;;;;6.63;4.05;;;;;;;13.92;60.28;93674.72;5102832;28;20028;-73
2023/10/15 00:42:32;;;;;;;11.80;3.60;;;;;;;13.90;60.18;93674.28;5102487;28;20039;-73
2023/10/15 00:44:57;;;;;;;10.68;4.10;;;;;;;13.87;60.15;93674.97;5102837;28;20310;-73
2023/10/15 00:47:23;;;;;;;9.73;3.80;;;;;;;13.85;60.31;93678.75;5108905;28;20023;-73
2023/10/15 00:49:48;;;;;;;10.93;4.28;;;;;;;13.81;60.56;93675.19;5109445;28;20027;-73
2023/10/15 00:52:15;;;;;;;9.65;3.95;;;;;;;13.83;60.61;93664.94;5109514;28;20318;-73
2023/10/15 00:54:41;;;;;;;12.88;3.92;;;;;;;13.82;60.58;93678.69;5091353;28;20030;-73
2023/10/15 00:57:27;;;;;;;15.52;4.07;;;;;;;13.79;60.78;93669.41;5091124;28;20091;-73
2023/10/15 00:59:55;;;;;;;14.32;3.80;;;;;;;13.76;60.98;93667.41;5109506;28;20092;-73
2023/10/15 01:02:26;;;;;;;10.68;3.63;;;;;;;13.71;61.37;93667.63;5108008;28;20218;-73
2023/10/15 01:04:58;;;;;;;10.10;4.78;;;;;;;13.67;61.38;93657.94;5109106;28;20027;-72
2023/10/15 01:07:38;;;;;;;14.93;4.45;;;;;;;13.60;61.62;93663.84;5109319;28;20024;-73
2023/10/15 01:10:04;;;;;;;12.55;3.92;;;;;;;13.62;61.44;93661.63;5109226;28;20035;-73
2023/10/15 01:12:32;;;;;;;12.70;5.10;;;;;;;13.61;61.61;93649.34;5109200;28;20207;-73
2023/10/15 01:14:59;;;;;;;14.18;3.60;;;;;;;13.56;61.66;93654.94;5109124;28;20024;-73
2023/10/15 01:17:36;;;;;;;10.15;4.45;;;;;;;13.56;61.92;93645.00;5109137;28;20028;-73
2023/10/15 01:20:05;;;;;;;8.75;4.45;;;;;;;13.53;62.25;93645.66;5109112;28;20051;-73
2023/10/15 01:22:32;;;;;;;8.80;4.03;;;;;;;13.55;62.46;93639.97;5108903;28;20027;-72
2023/10/15 01:25:09;;;;;;;9.60;4.00;;;;;;;13.54;62.43;93657.16;5109138;28;20042;-73
2023/10/15 01:27:36;;;;;;;16.15;3.88;;;;;;;13.50;62.33;93649.03;5109113;28;20030;-73
2023/10/15 01:30:02;;;;;;;8.60;3.72;;;;;;;13.47;62.00;93652.34;5108905;28;20051;-73
2023/10/15 01:32:31;;;;;;;11.30;4.72;;;;;;;13.51;61.94;93655.16;5090884;28;20012;-73
2023/10/15 01:34:59;;;;;;;12.35;4.03;;;;;;;13.50;60.88;93656.28;5108911;28;20020;-73
2023/10/15 01:37:25;;;;;;;6.72;3.53;;;;;;;13.53;60.70;93659.03;5108954;28;20026;-73
2023/10/15 01:40:12;;;;;;;11.00;4.47;;;;;;;13.58;60.41;93672.22;5108974;28;20043;-73
2023/10/15 01:42:41;;;;;;;12.20;4.00;;;;;;;13.53;60.55;93661.72;5108972;28;20051;-73
2023/10/15 01:45:15;;;;;;;15.85;4.15;;;;;;;13.56;59.99;93662.97;5107779;28;20020;-72
2023/10/15 01:50:23;;;;;;;8.25;3.72;;;;;;;13.57;60.41;93651.13;5109109;28;20103;-73
2023/10/15 01:52:49;;;;;;;16.08;4.32;;;;;;;13.60;61.11;93658.50;5108931;28;20332;-73
2023/10/15 01:55:17;;;;;;;9.15;4.30;;;;;;;13.54;61.43;93654.50;5109094;28;20130;-73
2023/10/15 01:57:43;;;;;;;13.70;4.70;;;;;;;13.52;61.68;93656.72;5106858;28;20144;-73
2023/10/15 02:00:33;;;;;;;9.98;4.60;;;;;;;13.50;61.97;93656.28;5105729;28;20024;-73
2023/10/15 02:02:59;;;;;;;12.48;4.75;;;;;;;13.41;62.00;93651.81;5087239;28;20200;-73
2023/10/15 02:05:30;;;;;;;13.25;4.38;;;;;;;13.38;61.77;93652.47;5105657;28;20256;-73
2023/10/15 02:07:56;;;;;;;13.75;4.57;;;;;;;13.31;62.18;93638.88;5105483;28;20326;-72
2023/10/15 02:10:28;;;;;;;15.18;3.80;;;;;;;13.28;62.45;93641.41;5105453;28;20027;-73
2023/10/15 02:13:00;;;;;;;12.02;5.03;;;;;;;13.28;62.91;93636.06;5105383;28;20075;-73
2023/10/15 02:15:31;;;;;;;12.45;4.97;;;;;;;13.24;62.78;93641.31;5105289;28;20019;-74
2023/10/15 02:17:59;;;;;;;10.93;4.53;;;;;;;13.19;62.98;93636.97;5105247;28;20062;-74
2023/10/15 02:20:44;;;;;;;8.50;4.25;;;;;;;13.17;63.09;93649.91;5105397;28;20026;-74
2023/10/15 02:23:15;;;;;;;20.75;4.88;;;;;;;13.14;62.94;93644.41;5105127;28;20031;-73
2023/10/15 02:25:46;;;;;;;11.25;4.18;;;;;;;13.11;63.03;93647.75;5105406;28;20073;-74
2023/10/15 02:28:25;;;;;;;12.43;4.53;;;;;;;13.14;62.75;93652.44;5105252;28;20118;-74
2023/10/15 02:30:58;;;;;;;15.77;4.85;;;;;;;13.09;62.86;93658.00;5105097;28;20311;-74
2023/10/15 02:33:25;;;;;;;13.70;4.82;;;;;;;13.08;62.58;93648.44;5105245;28;20034;-73
2023/10/15 02:35:54;;;;;;;13.35;4.45;;;;;;;13.10;62.21;93646.19;5104375;28;20222;-73
2023/10/15 02:38:26;;;;;;;9.20;4.68;;;;;;;13.10;62.66;93649.66;5103509;28;20027;-73
2023/10/15 02:43:30;;;;;;;14.40;4.45;;;;;;;13.00;63.12;93647.41;5103372;28;20107;-72
2023/10/15 02:46:22;;;;;;;11.15;4.53;;;;;;;12.98;63.02;93647.75;5104566;28;20023;-73
2023/10/15 02:48:44;;;;;;;14.90;4.93;;;;;;;12.95;63.08;93650.31;5104391;28;20042;-73
2023/10/15 02:51:10;;;;;;;16.02;5.35;;;;;;;12.94;63.29;93644.16;5104598;28;20042;-74
2023/10/15 02:53:38;;;;;;;13.85;4.55;;;;;;;12.93;63.33;93645.28;5104511;28;20039;-73
2023/10/15 02:56:10;;;;;;;10.00;5.28;;;;;;;12.91;63.35;93639.50;5104509;28;20067;-73
2023/10/15 02:58:36;;;;;;;9.30;4.47;;;;;;;12.89;63.66;93647.06;5104495;28;20095;-73
2023/10/15 03:01:18;;;;;;;8.65;4.47;;;;;;;12.89;63.75;93640.94;5104305;28;20260;-72
2023/10/15 03:03:52;;;;;;;15.98;5.72;;;;;;;12.83;63.66;93635.81;5104510;28;20226;-72
2023/10/15 03:06:25;;;;;;;17.77;4.82;;;;;;;12.83;63.39;93645.72;5104194;28;20030;-71
2023/10/15 03:08:51;;;;;;;14.48;4.63;;;;;;;12.82;63.25;93641.47;5103564;28;20024;-72
2023/10/15 03:11:20;;;;;;;10.73;5.60;;;;;;;12.82;63.58;93650.31;5103640;28;20027;-72
2023/10/15 03:16:18;;;;;;;;;;;;;;;12.76;64.10;93634.78;5104568;28;20024;-72
2023/10/15 03:18:48;;;;;;;12.98;5.30;;;;;;;12.68;64.44;93641.00;5104332;28;20153;-72
2023/10/15 03:21:26;;;;;;;15.40;5.18;;;;;;;12.64;64.71;93647.03;5103968;28;20138;-72
2023/10/15 03:23:58;;;;;;;14.93;5.60;;;;;;;12.65;64.88;93635.22;5103879;28;20026;-72
2023/10/15 03:26:32;;;;;;;11.07;5.07;;;;;;;12.65;64.98;93639.78;5103887;28;20023;-72
2023/10/15 03:28:59;;;;;;;8.80;4.93;;;;;;;12.60;65.02;93635.44;5103845;28;20027;-72
2023/10/15 03:31:27;;;;;;;14.63;5.05;;;;;;;12.60;65.16;93637.34;5103809;28;20023;-72
2023/10/15 03:34:21;;;;;;;9.43;4.75;;;;;;;12.60;64.98;93632.75;5103727;28;20024;-73
2023/10/15 03:37:00;;;;;;;13.23;5.53;;;;;;;12.58;65.22;93636.88;5103312;28;20103;-73
2023/10/15 03:39:44;;;;;;;13.15;4.90;;;;;;;12.55;65.39;93638.31;5103639;28;20020;-73
2023/10/15 03:42:10;;;;;;;13.05;4.45;;;;;;;12.56;65.34;93637.22;5103309;28;20103;-73
2023/10/15 03:44:54;;;;;;;13.38;5.05;;;;;;;12.56;65.08;93639.88;5085596;28;20253;-72
2023/10/15 03:47:25;;;;;;;11.73;5.13;;;;;;;12.59;64.67;93633.84;5103613;28;20023;-73
2023/10/15 03:49:55;;;;;;;10.38;4.38;;;;;;;12.60;64.58;93624.75;5103420;28;20016;-72
2023/10/15 03:52:21;;;;;;;20.92;5.60;;;;;;;12.61;65.12;93625.50;5103227;28;20057;-72
2023/10/15 03:54:50;;;;;;;19.70;6.25;;;;;;;12.59;65.08;93625.06;5103282;28;20237;-72
2023/10/15 03:57:17;;;;;;;10.52;5.15;;;;;;;12.57;65.51;93627.28;5085136;28;20027;-73
2023/10/15 04:05:20;;;;;;;11.98;5.45;;;;;;;12.46;66.01;93624.25;5062975;28;20342;-73
2023/10/15 04:07:48;;;;;;;17.95;5.70;;;;;;;12.45;66.17;93626.13;5101475;28;20102;-73
2023/10/15 04:10:15;;;;;;;11.45;4.50;;;;;;;12.47;66.10;93625.03;5101471;28;20042;-72
2023/10/15 04:12:43;;;;;;;12.25;4.60;;;;;;;12.47;65.56;93619.69;5101541;28;20083;-73
2023/10/15 04:15:17;;;;;;;10.10;4.50;;;;;;;12.48;65.80;93621.25;5101207;28;20023;-73
2023/10/15 04:17:48;;;;;;;7.45;4.50;;;;;;;12.47;65.83;93617.78;5101377;28;20117;-73
2023/10/15 04:20:34;;;;;;;10.57;4.93;;;;;;;12.45;66.01;93618.13;5100810;28;20024;-73
2023/10/15 04:23:00;;;;;;;12.77;6.20;;;;;;;12.47;66.01;93617.78;5101107;28;20024;-72
2023/10/15 04:25:26;;;;;;;12.10;5.53;;;;;;;12.44;65.87;93615.78;5084392;28;20073;-73
2023/10/15 04:27:55;;;;;;;12.05;5.13;;;;;;;12.42;66.01;93618.78;5102964;28;20043;-72
2023/10/15 04:30:22;;;;;;;12.02;5.57;;;;;;;12.41;66.07;93619.09;5102830;28;20226;-72
2023/10/15 04:32:48;;;;;;;15.65;5.32;;;;;;;12.38;66.37;93623.22;5102769;28;20260;-72
2023/10/15 04:35:18;;;;;;;11.23;4.82;;;;;;;12.31;66.49;93625.66;5102933;28;20035;-73
2023/10/15 04:37:53;;;;;;;14.23;5.60;;;;;;;12.32;66.59;93618.44;5102991;28;20318;-73
2023/10/15 04:40:23;;;;;;;13.88;5.20;;;;;;;12.33;66.54;93619.97;5102693;28;20024;-72
2023/10/15 04:42:50;;;;;;;16.70;5.75;;;;;;;12.36;66.14;93630.03;5102560;28;20058;-73
2023/10/15 04:45:35;;;;;;;12.32;4.78;;;;;;;12.40;65.73;93631.69;5102381;28;20016;-72
2023/10/15 04:48:01;;;;;;;10.20;5.05;;;;;;;12.43;65.69;93625.69;5102769;28;20276;-72
2023/10/15 04:50:35;;;;;;;10.88;4.93;;;;;;;12.50;65.77;93629.72;5102444;28;20020;-72
2023/10/15 04:53:13;;;;;;;19.10;6.40;;;;;;;12.47;65.65;93620.47;5102492;28;20083;-72
2023/10/15 04:55:42;;;;;;;15.77;5.32;;;;;;;12.48;65.83;93623.94;5102750;28;20024;-72
2023/10/15 04:58:09;;;;;;;17.42;5.28;;;;;;;12.52;65.88;93622.94;5102513;28;20028;-73
2023/10/15 05:00:38;;;;;;;14.07;6.07;;;;;;;12.55;65.79;93632.97;5102518;28;20057;-73
2023/10/15 05:03:04;;;;;;;12.85;4.82;;;;;;;12.60;65.20;93635.44;5102374;28;20234;-73
2023/10/15 05:05:31;;;;;;;14.93;6.00;;;;;;;12.60;65.22;93635.44;5102532;28;20024;-73
2023/10/15 05:07:59;;;;;;;18.73;5.15;;;;;;;12.61;65.32;93642.31;5102653;28;20248;-72
2023/10/15 05:10:29;;;;;;;15.05;5.65;;;;;;;12.63;65.32;93642.78;5102385;28;20035;-73
2023/10/15 05:12:54;;;;;;;18.98;6.40;;;;;;;12.68;65.33;93649.03;5102486;28;20027;-73
2023/10/15 05:15:20;;;;;;;12.75;6.20;;;;;;;12.69;65.28;93645.25;5102483;28;20059;-73
2023/10/15 05:17:47;;;;;;;13.55;6.57;;;;;;;12.72;65.09;93644.56;5102298;28;20057;-73
2023/10/15 05:20:13;;;;;;;16.88;6.93;;;;;;;12.73;65.17;93640.81;5102563;28;20226;-73
2023/10/15 05:22:39;;;;;;;21.85;6.80;;;;;;;12.78;65.13;93643.25;5102215;28;20024;-73
2023/10/15 05:25:05;;;;;;;15.88;6.72;;;;;;;12.85;65.20;93648.84;5102325;28;20088;-73
2023/10/15 05:27:32;;;;;;;11.32;5.95;;;;;;;12.91;64.89;93644.06;5102265;28;20028;-73
2023/10/15 05:29:58;;;;;;;28.90;9.65;;;;;;;12.97;65.30;93648.88;5102260;28;20020;-73
2023/10/15 05:32:24;;;;;;;15.32;6.20;;;;;;;13.02;65.52;93645.19;5102180;28;20053;-73
2023/10/15 05:34:50;;;;;;;14.10;6.53;;;;;;;13.09;65.59;93648.09;5088003;28;20053;-72
2023/10/15 05:37:16;;;;;;;23.88;7.03;;;;;;;13.16;65.35;93647.53;5106176;28;20027;-72
2023/10/15 05:39:41;;;;;;;25.95;7.38;;;;;;;13.21;65.33;93650.00;5106268;28;20028;-72
2023/10/15 05:42:07;;;;;;;17.98;7.35;;;;;;;13.27;65.48;93642.53;5105825;28;20067;-73
2023/10/15 05:44:34;;;;;;;20.10;7.85;;;;;;;13.34;65.42;93637.44;5106014;28;20069;-73
2023/10/15 05:47:00;;;;;;;19.65;7.78;;;;;;;13.38;65.57;93636.41;5105715;28;20264;-72
2023/10/15 05:49:26;;;;;;;23.33;7.88;;;;;;;13.45;65.50;93635.84;5105641;28;20040;-72
2023/10/15 05:51:51;;;;;;;24.73;8.20;;;;;;;13.54;65.60;93641.88;5105821;28;20222;-72
2023/10/15 05:54:17;;;;;;;19.73;8.88;;;;;;;13.61;65.71;93634.03;5106010;28;20057;-72
2023/10/15 05:56:42;;;;;;;29.88;9.65;;;;;;;13.71;65.58;93640.06;5105746;28;20024;-72
2023/10/15 05:59:08;;;;;;;32.30;10.60;;;;;;;13.78;65.28;93634.91;5105741;28;20019;-72
2023/10/15 06:01:33;;;;;;;33.42;12.07;;;;;;;13.87;64.88;93634.78;5105579;28;20031;-72
2023/10/15 06:03:59;;;;;;;20.10;9.13;;;;;;;13.94;65.33;93643.81;5105414;28;20019;-72
2023/10/15 06:06:25;;;;;;;27.63;12.35;;;;;;;14.02;65.04;93642.09;5105361;28;20149;-72
2023/10/15 06:08:53;;;;;;;24.05;8.80;;;;;;;14.08;64.46;93640.75;5105480;28;20024;-72
2023/10/15 06:11:19;;;;;;;23.13;8.73;;;;;;;14.15;63.92;93646.31;5105488;28;20229;-72
2023/10/15 06:13:44;;;;;;;17.90;7.20;;;;;;;14.21;63.74;93647.63;5105398;28;20016;-72
2023/10/15 06:16:10;;;;;;;24.50;8.90;;;;;;;14.25;62.96;93648.53;5105426;28;20024;-72
2023/10/15 06:18:35;;;;;;;26.60;7.65;;;;;;;14.29;62.91;93645.13;5105208;28;20075;-73
2023/10/15 06:21:00;;;;;;;26.02;8.23;;;;;;;14.34;62.69;93631.50;5105208;28;20043;-73
2023/10/15 06:23:26;;;;;;;21.27;8.38;;;;;;;14.43;62.26;93646.31;5105063;28;20251;-73
2023/10/15 06:25:51;;;;;;;19.65;8.23;;;;;;;14.50;61.93;93645.72;5105085;28;20103;-73
2023/10/15 06:28:17;;;;;;;14.68;7.50;;;;;;;14.58;61.11;93636.78;5105070;28;20019;-73
2023/10/15 06:30:44;;;;;;;24.08;8.07;;;;;;;14.64;61.09;93634.63;5105277;28;20019;-72
2023/10/15 06:33:09;;;;;;;19.95;8.30;;;;;;;14.71;60.98;93628.66;5105021;28;20051;-73
2023/10/15 06:35:35;;;;;;;30.80;9.38;;;;;;;14.79;60.80;93623.13;5104990;28;20050;-74
2023/10/15 06:38:01;;;;;;;29.33;9.05;;;;;;;14.88;60.49;93625.66;5104903;28;20020;-72
2023/10/15 06:40:28;;;;;;;17.85;8.90;;;;;;;14.96;60.94;93634.66;5105040;28;20031;-78
2023/10/15 06:43:00;;;;;;;18.52;8.88;;;;;;;15.01;62.01;93627.13;5104375;28;20044;-77
2023/10/15 06:45:27;;;;;;;23.38;9.63;;;;;;;15.01;60.97;93626.34;5104818;28;20020;-79
2023/10/15 06:47:53;;;;;;;16.95;8.25;;;;;;;14.89;61.41;93626.44;5104947;28;20012;-78
2023/10/15 06:50:22;;;;;;;14.88;7.55;;;;;;;14.94;60.79;93631.53;5104774;28;20024;-78
2023/10/15 06:52:48;;;;;;;29.58;8.15;;;;;;;14.91;60.64;93624.97;5104605;28;20086;-78
2023/10/15 06:55:14;;;;;;;19.58;7.72;;;;;;;14.92;60.47;93629.22;5104733;28;20023;-79
2023/10/15 06:57:41;;;;;;;21.60;7.93;;;;;;;15.02;60.17;93617.16;5104692;28;20095;-79
2023/10/15 07:00:10;;;;;;;20.60;8.88;;;;;;;15.14;60.34;93617.09;5104504;28;20103;-70
2023/10/15 07:02:36;;;;;;;20.60;8.43;;;;;;;15.23;59.52;93616.91;5104296;28;20108;-70
2023/10/15 07:05:04;;;;;;;29.35;8.02;;;;;;;15.28;59.37;93611.28;5104305;28;20016;-69
2023/10/15 07:07:30;;;;;;;16.50;7.70;;;;;;;15.34;59.74;93601.81;5104027;28;20020;-70
2023/10/15 07:09:56;;;;;;;23.98;8.93;;;;;;;15.45;59.41;93600.16;5104041;28;20020;-70
2023/10/15 07:12:22;;;;;;;41.65;9.60;;;;;;;15.56;59.02;93607.69;5086081;28;20354;-70
2023/10/15 07:14:48;;;;;;;15.90;7.70;;;;;;;15.57;58.25;93601.16;5104012;28;20318;-70
2023/10/15 07:17:15;;;;;;;24.30;8.60;;;;;;;15.70;58.62;93607.22;5103970;28;20061;-71
2023/10/15 07:19:41;;;;;;;31.02;11.85;;;;;;;15.78;58.01;93593.59;5104092;28;20025;-70
2023/10/15 07:22:06;;;;;;;22.17;8.40;;;;;;;15.91;57.31;93596.94;5103878;28;20031;-70
2023/10/15 07:24:32;;;;;;;15.95;7.50;;;;;;;16.02;56.86;93592.56;5103896;28;20031;-70
2023/10/15 07:26:57;;;;;;;24.42;7.18;;;;;;;16.14;56.38;93588.97;5103885;28;20028;-70
2023/10/15 07:29:24;;;;;;;16.70;6.80;;;;;;;16.28;55.62;93593.06;5103734;28;20299;-70
2023/10/15 07:31:49;;;;;;;16.50;6.63;;;;;;;16.39;55.31;93597.50;5103652;28;20103;-70
2023/10/15 07:34:16;;;;;;;19.38;6.20;;;;;;;16.49;54.69;93582.69;5103916;28;20024;-71
2023/10/15 07:36:43;;;;;;;13.27;6.28;;;;;;;16.59;54.21;93581.34;5103682;28;20044;-70
2023/10/15 07:39:09;;;;;;;20.13;7.10;;;;;;;16.70;53.89;93582.28;5103559;28;20016;-70
2023/10/15 07:41:34;;;;;;;15.10;5.82;;;;;;;16.82;53.17;93578.69;5103470;28;20066;-70
2023/10/15 07:44:01;;;;;;;26.17;7.78;;;;;;;16.92;53.04;93591.53;5103472;28;20016;-70
2023/10/15 07:46:28;;;;;;;20.67;7.22;;;;;;;17.01;52.30;93581.28;5102719;28;20028;-70
2023/10/15 07:48:54;;;;;;;18.65;6.68;;;;;;;17.11;51.76;93584.53;5102497;28;20040;-70
2023/10/15 07:51:20;;;;;;;17.88;6.63;;;;;;;17.18;51.29;93576.59;5103338;28;20271;-70
2023/10/15 07:53:45;;;;;;;22.17;7.47;;;;;;;17.27;51.67;93577.09;5103430;28;20016;-70
2023/10/15 07:56:14;;;;;;;17.00;7.60;;;;;;;17.29;51.10;93577.50;5102986;28;20012;-69
2023/10/15 07:58:40;;;;;;;18.55;7.07;;;;;;;17.40;51.87;93581.16;5103368;28;20322;-70
2023/10/15 08:01:05;;;;;;;21.05;7.30;;;;;;;17.45;51.35;93578.13;5103218;28;20046;-69
2023/10/15 08:03:32;;;;;;;19.45;7.00;;;;;;;17.55;50.92;93582.13;5103324;28;20382;-69
2023/10/15 08:06:00;;;;;;;16.08;6.63;;;;;;;17.63;50.08;93580.31;5103088;28;20219;-70
2023/10/15 08:08:25;;;;;;;20.35;7.50;;;;;;;17.70;49.76;93575.00;5103151;28;20040;-70
2023/10/15 08:10:51;;;;;;;15.70;7.65;;;;;;;17.71;49.31;93584.66;5103100;28;20023;-70
2023/10/15 08:13:18;;;;;;;24.95;7.03;;;;;;;17.72;49.51;93577.34;5103094;28;20262;-70
2023/10/15 08:15:44;;;;;;;17.38;5.70;;;;;;;17.77;49.61;93577.81;5103246;28;20020;-69
2023/10/15 08:18:09;;;;;;;20.60;6.18;;;;;;;17.84;49.84;93572.53;5102786;28;20046;-70
2023/10/15 08:20:35;;;;;;;24.15;6.25;;;;;;;17.91;49.82;93561.06;5102672;28;20049;-70
2023/10/15 08:23:01;;;;;;;13.20;6.07;;;;;;;18.01;49.50;93565.03;5102621;28;20044;-70
2023/10/15 08:25:26;;;;;;;14.55;6.13;;;;;;;18.03;48.49;93568.13;5102874;28;20070;-70
2023/10/15 08:27:51;;;;;;;20.55;5.88;;;;;;;18.05;48.57;93563.13;5102825;28;20028;-69
2023/10/15 08:30:18;;;;;;;16.38;6.28;;;;;;;18.10;48.33;93562.84;5102697;28;20376;-70
2023/10/15 08:32:45;;;;;;;16.85;6.40;;;;;;;18.16;48.63;93555.19;5102831;28;20079;-70
2023/10/15 08:35:15;;;;;;;19.23;5.40;;;;;;;18.20;48.04;93554.09;5102442;28;20024;-70
2023/10/15 08:37:44;;;;;;;19.95;6.80;;;;;;;18.24;47.91;93552.19;5101303;28;20027;-70
2023/10/15 08:40:15;;;;;;;17.60;6.15;;;;;;;18.26;47.46;93554.53;5082830;28;20337;-70
2023/10/15 08:42:50;;;;;;;16.27;6.40;;;;;;;18.32;47.81;93552.25;5101248;28;20160;-71
2023/10/15 08:45:22;;;;;;;12.85;6.20;;;;;;;18.37;47.34;93543.84;5101402;28;20028;-71
2023/10/15 08:47:48;;;;;;;11.75;5.80;;;;;;;18.42;47.73;93549.69;5101723;28;20024;-78
2023/10/15 08:50:16;;;;;;;13.02;5.95;;;;;;;18.50;47.98;93549.75;5101854;28;20031;-78
2023/10/15 08:52:43;;;;;;;14.95;6.05;;;;;;;18.57;47.29;93547.16;5102292;28;20070;-78
2023/10/15 08:55:09;;;;;;;23.83;5.72;;;;;;;18.63;48.00;93551.06;5102701;28;20020;-78
2023/10/15 08:57:36;;;;;;;13.07;6.15;;;;;;;18.74;47.64;93551.16;5102518;28;20395;-78
2023/10/15 09:00:04;;;;;;;15.25;5.47;;;;;;;18.82;47.04;93545.47;5102306;28;20234;-78
2023/10/15 09:02:30;;;;;;;12.68;6.22;;;;;;;18.90;46.99;93546.31;5102303;28;20024;-78
2023/10/15 09:04:55;;;;;;;10.98;5.70;;;;;;;18.94;46.42;93536.31;5102621;28;20100;-78
2023/10/15 09:07:22;;;;;;;27.77;6.60;;;;;;;18.96;46.33;93542.09;5104398;28;20218;-78
2023/10/15 09:09:49;;;;;;;13.27;6.20;;;;;;;18.95;46.46;93537.06;5106812;28;20294;-78
2023/10/15 09:12:15;;;;;;;14.95;5.60;;;;;;;19.00;47.05;93531.34;5106796;28;20314;-78
2023/10/15 09:14:45;;;;;;;17.52;7.10;;;;;;;19.06;46.15;93526.38;5088597;28;20051;-78
2023/10/15 09:17:12;;;;;;;23.08;5.88;;;;;;;19.05;45.84;93522.91;5106610;28;20030;-78
2023/10/15 09:19:39;;;;;;;27.00;6.93;;;;;;;19.08;46.44;93516.75;5106633;28;20032;-78
2023/10/15 09:22:14;;;;;;;17.25;6.32;;;;;;;19.18;46.50;93515.28;5106689;28;20020;-78
2023/10/15 09:24:46;;;;;;;11.93;5.93;;;;;;;19.29;46.19;93521.50;5106562;28;20024;-78
2023/10/15 09:27:13;;;;;;;31.85;7.80;;;;;;;19.35;45.56;93519.22;5106588;28;20249;-76
2023/10/15 09:29:38;;;;;;;16.42;5.82;;;;;;;19.40;45.17;93522.38;5106004;28;20020;-77
2023/10/15 09:32:05;;;;;;;19.15;7.35;;;;;;;19.48;45.65;93516.97;5106436;28;20015;-76
2023/10/15 09:34:38;;;;;;;19.58;5.72;;;;;;;19.60;45.13;93508.56;5106285;28;20024;-77
2023/10/15 09:37:05;;;;;;;22.23;5.53;;;;;;;19.67;44.43;93514.00;5106424;28;20039;-78
2023/10/15 09:39:31;;;;;;;20.23;6.15;;;;;;;19.69;45.07;93503.59;5106172;28;20040;-77
2023/10/15 09:42:02;;;;;;;16.60;6.32;;;;;;;19.75;44.12;93504.81;5105865;28;20090;-76
2023/10/15 09:44:28;;;;;;;21.10;6.40;;;;;;;19.79;44.80;93494.78;5105916;28;20032;-77
2023/10/15 09:46:54;;;;;;;10.80;5.57;;;;;;;19.95;44.02;93504.50;5105884;28;20058;-78
2023/10/15 09:49:20;;;;;;;15.15;6.00;;;;;;;19.97;43.50;93505.69;5087649;28;20027;-77
2023/10/15 09:51:50;;;;;;;18.67;5.72;;;;;;;20.00;43.87;93501.44;5105916;28;20123;-76
2023/10/15 09:54:19;;;;;;;23.67;6.32;;;;;;;20.13;43.61;93499.94;5105862;28;20031;-77
2023/10/15 09:56:48;;;;;;;17.35;6.00;;;;;;;20.15;43.15;93489.50;5087753;28;20035;-77
2023/10/15 09:59:19;;;;;;;18.27;5.72;;;;;;;20.22;43.34;93489.50;5105961;28;20030;-77
2023/10/15 10:01:50;;;;;;;15.85;6.00;;;;;;;20.33;43.59;93489.53;5106014;28;20314;-78
2023/10/15 10:04:40;;;;;;;13.27;5.50;;;;;;;20.46;43.09;93484.53;5105721;28;20032;-78
2023/10/15 10:07:37;;;;;;;24.20;6.20;;;;;;;20.57;42.82;93477.19;5105688;28;20245;-73
2023/10/15 10:10:05;;;;;;;17.95;5.18;;;;;;;20.67;42.38;93474.91;5105571;28;20028;-72
2023/10/15 10:12:59;;;;;;;26.17;5.43;;;;;;;20.81;42.67;93469.50;5105479;28;20249;-73
2023/10/15 10:15:52;;;;;;;15.10;5.15;;;;;;;21.01;42.01;93462.53;5105447;28;20055;-72
2023/10/15 10:18:18;;;;;;;17.13;5.07;;;;;;;21.16;41.93;93463.28;5104558;28;20024;-72
2023/10/15 10:20:48;;;;;;;13.65;6.13;;;;;;;21.30;42.05;93450.88;5105531;28;20024;-73
2023/10/15 10:23:14;;;;;;;11.65;4.20;;;;;;;21.44;41.15;93454.34;5105388;28;20301;-74
2023/10/15 10:25:42;;;;;;;16.55;4.47;;;;;;;21.64;40.77;93459.31;5104916;28;20087;-73
2023/10/15 10:28:16;;;;;;;17.02;4.53;;;;;;;21.67;40.45;93439.53;5105027;28;20034;-73
2023/10/15 10:31:00;;;;;;;12.77;4.80;;;;;;;21.79;39.85;93439.09;5105361;28;20080;-72
2023/10/15 10:33:44;;;;;;;15.02;5.05;;;;;;;21.82;40.14;93435.63;5104717;28;20090;-73
2023/10/15 10:36:26;;;;;;;20.98;4.78;;;;;;;21.96;40.28;93431.28;5104159;28;20040;-73
2023/10/15 10:39:15;;;;;;;9.15;4.07;;;;;;;22.06;39.39;93433.16;5086822;28;20107;-73
2023/10/15 10:41:46;;;;;;;16.63;4.82;;;;;;;22.11;39.24;93421.91;5104590;28;20044;-74
2023/10/15 10:44:23;;;;;;;13.38;4.00;;;;;;;22.20;39.67;93422.22;5104792;28;20024;-74
2023/10/15 10:46:50;;;;;;;17.10;4.60;;;;;;;22.35;39.55;93420.22;5104712;28;20039;-73
2023/10/15 10:49:18;;;;;;;9.50;4.20;;;;;;;22.46;38.69;93417.44;5104788;28;20093;-73
2023/10/15 10:52:04;;;;;;;12.40;4.18;;;;;;;22.52;38.04;93407.69;5104611;28;20124;-73
2023/10/15 10:54:30;;;;;;;9.30;4.13;;;;;;;22.54;37.26;93399.91;5104409;28;20368;-73
2023/10/15 10:56:58;;;;;;;9.75;3.92;;;;;;;22.65;37.00;93394.38;5104666;28;20083;-73
2023/10/15 10:59:24;;;;;;;10.45;5.22;;;;;;;22.77;36.52;93385.72;5104345;28;20038;-73
2023/10/15 11:01:49;;;;;;;11.73;3.53;;;;;;;22.87;36.19;93392.25;5085350;28;20091;-73
2023/10/15 11:04:15;;;;;;;17.55;4.30;;;;;;;22.88;35.35;93382.16;5103047;28;20028;-73
2023/10/15 11:06:42;;;;;;;8.70;3.50;;;;;;;22.92;34.67;93386.41;5104189;28;20286;-73
2023/10/15 11:09:15;;;;;;;15.65;3.40;;;;;;;22.99;34.42;93380.88;5104381;28;20043;-72
2023/10/15 11:11:52;;;;;;;9.32;3.50;;;;;;;23.11;34.45;93376.16;5104357;28;20020;-72
2023/10/15 11:14:23;;;;;;;9.07;3.40;;;;;;;23.19;33.80;93380.31;5104201;28;20016;-72
2023/10/15 11:16:49;;;;;;;7.97;3.28;;;;;;;23.18;33.54;93373.34;5104145;28;20204;-72
2023/10/15 11:19:16;;;;;;;16.38;3.33;;;;;;;23.23;34.10;93376.38;5103396;28;20214;-72
2023/10/15 11:21:42;;;;;;;14.65;3.33;;;;;;;23.34;34.49;93367.34;5103049;28;20040;-72
2023/10/15 11:24:11;;;;;;;9.98;3.15;;;;;;;23.40;35.03;93371.16;5102678;28;20031;-72
2023/10/15 11:26:41;;;;;;;14.63;3.22;;;;;;;23.44;34.43;93361.00;5102398;28;20133;-73
2023/10/15 11:29:08;;;;;;;7.32;3.38;;;;;;;23.49;34.26;93365.22;5084515;28;20028;-72
2023/10/15 11:31:34;;;;;;;16.88;3.80;;;;;;;23.59;33.83;93362.38;5101457;28;20091;-73
2023/10/15 11:34:00;;;;;;;12.57;3.20;;;;;;;23.56;34.01;93357.75;5102623;28;20360;-73
2023/10/15 11:36:25;;;;;;;14.52;4.72;;;;;;;23.68;34.14;93352.94;5103790;28;20091;-73
2023/10/15 11:38:52;;;;;;;11.27;3.47;;;;;;;23.78;34.46;93358.28;5103637;28;20099;-72
2023/10/15 11:41:18;;;;;;;13.23;4.40;;;;;;;23.92;33.79;93351.09;5103508;28;20067;-72
2023/10/15 11:43:43;;;;;;;8.05;4.00;;;;;;;23.95;33.34;93350.28;5103722;28;20195;-72
2023/10/15 11:46:10;;;;;;;9.95;3.38;;;;;;;24.05;33.55;93359.47;5103653;28;20030;-72
2023/10/15 11:48:37;;;;;;;11.40;3.42;;;;;;;24.25;32.28;93351.41;5103582;28;20027;-72